createdAt,value
2019-03-27T00:01:30.401Z,24.77
2019-03-27T00:03:32.614Z,21.37
2019-03-27T00:05:34.837Z,16.33
2019-03-27T00:07:37.073Z,27.47
2019-03-27T00:09:39.377Z,25.57
2019-03-27T00:11:41.610Z,14.30
2019-03-27T00:13:44.160Z,18.93
2019-03-27T00:15:46.490Z,19.33
2019-03-27T00:17:48.810Z,26.10
2019-03-27T00:19:51.018Z,18.77
2019-03-27T00:21:53.246Z,20.97
2019-03-27T00:23:55.474Z,27.50
2019-03-27T00:25:57.701Z,15.40
2019-03-27T00:27:59.918Z,25.30
2019-03-27T00:30:02.172Z,24.83
2019-03-27T00:32:04.754Z,25.77
2019-03-27T00:34:06.969Z,21.93
2019-03-27T00:36:09.189Z,21.93
2019-03-27T00:38:11.418Z,26.67
2019-03-27T00:40:13.637Z,24.23
2019-03-27T00:42:16.113Z,29.33
2019-03-27T00:44:18.654Z,16.67
2019-03-27T00:46:20.889Z,21.27
2019-03-27T00:48:23.344Z,21.17
2019-03-27T00:50:25.577Z,37.10
2019-03-27T00:52:27.802Z,24.93
2019-03-27T00:54:30.040Z,28.73
2019-03-27T00:56:32.264Z,31.57
2019-03-27T00:58:34.481Z,20.13
2019-03-27T01:01:07.510Z,17.60
2019-03-27T01:03:09.749Z,36.63
2019-03-27T01:05:11.966Z,31.63
2019-03-27T01:07:14.225Z,15.50
2019-03-27T01:09:16.449Z,18.73
2019-03-27T01:11:18.679Z,29.87
2019-03-27T01:13:20.915Z,18.80
2019-03-27T01:15:23.144Z,21.10
2019-03-27T01:17:25.369Z,21.53
2019-03-27T01:19:27.589Z,16.57
2019-03-27T01:21:29.816Z,19.20
2019-03-27T01:23:32.062Z,19.23
2019-03-27T01:25:34.279Z,19.50
2019-03-27T01:27:36.510Z,27.93
2019-03-27T01:29:38.721Z,21.40
2019-03-27T01:31:40.958Z,18.77
2019-03-27T01:33:43.161Z,28.43
2019-03-27T01:35:45.396Z,31.30
2019-03-27T01:37:47.617Z,18.20
2019-03-27T01:39:49.836Z,22.03
2019-03-27T01:41:52.370Z,23.10
2019-03-27T01:43:54.586Z,20.03
2019-03-27T01:45:56.804Z,23.43
2019-03-27T01:47:59.029Z,21.20
2019-03-27T01:50:01.589Z,24.43
2019-03-27T01:52:03.838Z,20.50
2019-03-27T01:54:06.076Z,22.03
2019-03-27T01:56:08.294Z,23.50
2019-03-27T01:58:10.855Z,20.10
2019-03-27T02:00:13.078Z,20.33
2019-03-27T02:02:15.314Z,20.30
2019-03-27T02:04:17.549Z,21.60
2019-03-27T02:06:19.773Z,21.70
2019-03-27T02:08:22.286Z,36.60
2019-03-27T02:10:24.510Z,25.90
2019-03-27T02:12:26.738Z,27.33
2019-03-27T02:14:29.183Z,30.00
2019-03-27T02:16:31.405Z,43.57
2019-03-27T02:18:33.969Z,42.23
2019-03-27T02:20:36.193Z,34.00
2019-03-27T02:22:38.427Z,38.47
2019-03-27T02:24:40.652Z,38.10
2019-03-27T02:26:42.875Z,35.03
2019-03-27T02:28:45.112Z,48.70
2019-03-27T02:30:47.624Z,33.00
2019-03-27T02:32:49.861Z,29.40
2019-03-27T02:34:52.081Z,42.83
2019-03-27T02:36:54.302Z,33.03
2019-03-27T02:38:56.550Z,34.63
2019-03-27T02:40:58.763Z,31.43
2019-03-27T02:43:00.995Z,25.93
2019-03-27T02:45:03.693Z,33.87
2019-03-27T02:47:05.913Z,39.33
2019-03-27T02:49:08.435Z,26.27
2019-03-27T02:51:10.662Z,34.73
2019-03-27T02:53:12.878Z,39.47
2019-03-27T02:55:15.112Z,40.93
2019-03-27T02:57:17.430Z,42.87
2019-03-27T02:59:19.657Z,42.37
2019-03-27T03:01:21.874Z,44.67
2019-03-27T03:03:24.109Z,44.43
2019-03-27T03:05:26.320Z,36.33
2019-03-27T03:07:28.533Z,45.03
2019-03-27T03:09:30.767Z,39.77
2019-03-27T03:11:32.983Z,37.83
2019-03-27T03:13:35.314Z,50.47
2019-03-27T03:15:37.528Z,24.97
2019-03-27T03:17:40.061Z,45.00
2019-03-27T03:19:42.289Z,44.00
2019-03-27T03:21:44.516Z,41.57
2019-03-27T03:23:46.744Z,38.23
2019-03-27T03:25:49.218Z,49.60
2019-03-27T03:27:51.437Z,46.40
2019-03-27T03:29:53.666Z,56.13
2019-03-27T03:31:55.892Z,52.00
2019-03-27T03:33:58.131Z,50.63
2019-03-27T03:36:00.348Z,46.40
2019-03-27T03:38:02.574Z,49.03
2019-03-27T03:40:05.050Z,54.37
2019-03-27T03:42:07.275Z,66.37
2019-03-27T03:44:09.509Z,53.20
2019-03-27T03:46:11.736Z,55.43
2019-03-27T03:48:13.971Z,55.40
2019-03-27T03:50:40.778Z,44.20
2019-03-27T03:52:45.899Z,53.37
2019-03-27T03:54:47.497Z,67.10
2019-03-27T03:56:50.214Z,49.00
2019-03-27T03:58:52.447Z,50.83
2019-03-27T04:00:54.756Z,58.47
2019-03-27T04:02:56.965Z,67.20
2019-03-27T04:04:59.194Z,50.17
2019-03-27T04:07:01.386Z,53.73
2019-03-27T04:09:04.429Z,65.23
2019-03-27T04:11:06.639Z,56.50
2019-03-27T04:13:08.846Z,54.10
2019-03-27T04:15:11.089Z,65.07
2019-03-27T04:17:17.437Z,70.80
2019-03-27T04:19:17.678Z,50.73
2019-03-27T04:21:19.899Z,50.30
2019-03-27T04:23:22.209Z,70.13
2019-03-27T04:25:24.440Z,61.40
2019-03-27T04:27:26.666Z,47.80
2019-03-27T04:29:28.906Z,46.37
2019-03-27T04:31:31.139Z,53.17
2019-03-27T04:33:33.705Z,46.40
2019-03-27T04:35:35.939Z,58.83
2019-03-27T04:37:38.165Z,72.00
2019-03-27T04:39:40.400Z,42.20
2019-03-27T04:41:42.653Z,49.50
2019-03-27T04:43:44.894Z,55.03
2019-03-27T04:45:47.106Z,58.70
2019-03-27T04:47:49.656Z,62.87
2019-03-27T04:49:51.890Z,59.10
2019-03-27T04:51:54.114Z,53.73
2019-03-27T04:53:56.358Z,66.13
2019-03-27T04:55:58.683Z,58.47
2019-03-27T04:58:00.902Z,63.50
2019-03-27T05:00:05.277Z,61.10
2019-03-27T05:02:07.494Z,57.23
2019-03-27T05:04:09.922Z,50.63
2019-03-27T05:06:12.142Z,66.80
2019-03-27T05:08:14.673Z,70.20
2019-03-27T05:10:16.893Z,57.57
2019-03-27T05:12:19.113Z,50.77
2019-03-27T05:14:21.340Z,59.20
2019-03-27T05:16:23.563Z,49.53
2019-03-27T05:18:25.782Z,54.10
2019-03-27T05:20:28.865Z,58.83
2019-03-27T05:22:31.229Z,58.43
2019-03-27T05:24:33.462Z,62.03
2019-03-27T05:26:35.694Z,74.00
2019-03-27T05:28:38.010Z,63.60
2019-03-27T05:30:40.246Z,60.73
2019-03-27T05:32:42.785Z,53.67
2019-03-27T05:34:45.023Z,54.67
2019-03-27T05:36:47.228Z,55.43
2019-03-27T05:38:49.449Z,63.23
2019-03-27T05:40:51.694Z,56.47
2019-03-27T05:43:00.553Z,58.10
2019-03-27T05:44:58.373Z,55.13
2019-03-27T05:47:00.593Z,64.60
2019-03-27T05:49:02.825Z,46.17
2019-03-27T05:51:05.053Z,49.30
2019-03-27T05:53:07.600Z,51.93
2019-03-27T05:55:09.842Z,63.30
2019-03-27T05:57:12.056Z,74.33
2019-03-27T05:59:14.290Z,47.23
2019-03-27T06:01:16.705Z,58.07
2019-03-27T06:03:18.944Z,43.07
2019-03-27T06:05:21.253Z,49.67
2019-03-27T06:07:24.073Z,44.97
2019-03-27T06:09:26.309Z,48.13
2019-03-27T06:11:28.526Z,47.10
2019-03-27T06:13:30.746Z,46.23
2019-03-27T06:15:32.964Z,48.77
2019-03-27T06:17:35.180Z,45.90
2019-03-27T06:19:37.416Z,40.97
2019-03-27T06:21:39.636Z,48.73
2019-03-27T06:23:41.853Z,43.90
2019-03-27T06:25:44.423Z,56.37
2019-03-27T06:27:46.638Z,42.60
2019-03-27T06:29:48.870Z,48.00
2019-03-27T06:31:51.107Z,64.53
2019-03-27T06:33:53.453Z,49.43
2019-03-27T06:35:55.683Z,63.17
2019-03-27T06:37:57.902Z,54.83
2019-03-27T06:40:00.506Z,61.80
2019-03-27T06:42:03.565Z,48.40
2019-03-27T06:44:05.787Z,46.10
2019-03-27T06:46:08.024Z,49.30
2019-03-27T06:48:10.237Z,47.77
2019-03-27T06:50:12.469Z,47.87
2019-03-27T06:52:14.690Z,40.07
2019-03-27T06:54:16.930Z,45.93
2019-03-27T06:56:19.149Z,49.40
2019-03-27T06:58:21.647Z,39.63
2019-03-27T07:00:32.966Z,46.43
2019-03-27T07:02:35.223Z,40.90
2019-03-27T07:04:37.549Z,36.83
2019-03-27T07:06:39.770Z,38.83
2019-03-27T07:08:42.294Z,64.47
2019-03-27T07:10:44.524Z,42.87
2019-03-27T07:12:46.736Z,46.03
2019-03-27T07:14:49.298Z,39.47
2019-03-27T07:16:51.517Z,34.03
2019-03-27T07:18:53.742Z,44.23
2019-03-27T07:20:55.966Z,57.60
2019-03-27T07:22:58.186Z,61.87
2019-03-27T07:25:00.481Z,35.87
2019-03-27T07:27:02.938Z,41.73
2019-03-27T07:29:05.159Z,53.57
2019-03-27T07:31:07.396Z,34.53
2019-03-27T07:33:09.606Z,39.47
2019-03-27T07:35:11.838Z,50.77
2019-03-27T07:37:14.088Z,41.87
2019-03-27T07:39:16.301Z,39.23
2019-03-27T07:41:18.533Z,33.23
2019-03-27T07:43:20.759Z,50.33
2019-03-27T07:45:22.985Z,41.47
2019-03-27T07:47:25.206Z,44.50
2019-03-27T07:49:27.721Z,40.77
2019-03-27T07:51:30.205Z,52.47
2019-03-27T07:53:32.422Z,41.53
2019-03-27T07:55:34.693Z,42.27
2019-03-27T07:57:36.914Z,46.87
2019-03-27T07:59:39.137Z,38.33
2019-03-27T08:01:41.357Z,37.53
2019-03-27T08:03:43.570Z,45.00
2019-03-27T08:05:45.810Z,37.27
2019-03-27T08:07:48.271Z,31.50
2019-03-27T08:09:50.490Z,39.37
2019-03-27T08:11:53.062Z,36.80
2019-03-27T08:13:55.525Z,34.40
2019-03-27T08:15:57.758Z,34.10
2019-03-27T08:17:59.990Z,36.90
2019-03-27T08:20:02.273Z,40.77
2019-03-27T08:22:04.502Z,44.40
2019-03-27T08:24:06.717Z,33.13
2019-03-27T08:26:08.949Z,29.97
2019-03-27T08:28:11.173Z,36.10
2019-03-27T08:30:13.999Z,32.93
2019-03-27T08:32:16.385Z,33.87
2019-03-27T08:34:18.645Z,34.80
2019-03-27T08:36:21.165Z,34.70
2019-03-27T08:38:23.384Z,42.17
2019-03-27T08:40:25.642Z,26.07
2019-03-27T08:42:27.849Z,30.27
2019-03-27T08:44:30.070Z,23.57
2019-03-27T08:46:32.293Z,25.80
2019-03-27T08:48:34.519Z,33.10
2019-03-27T08:50:36.754Z,21.67
2019-03-27T08:52:39.037Z,22.23
2019-03-27T08:54:41.570Z,30.20
2019-03-27T08:56:43.784Z,26.33
2019-03-27T08:58:46.002Z,22.17
2019-03-27T09:00:49.825Z,27.63
2019-03-27T09:02:52.145Z,27.10
2019-03-27T09:04:54.761Z,23.67
2019-03-27T09:06:56.995Z,24.07
2019-03-27T09:08:59.213Z,28.13
2019-03-27T09:11:04.544Z,20.27
2019-03-27T09:13:05.553Z,15.93
2019-03-27T09:15:07.998Z,25.07
2019-03-27T09:17:10.240Z,14.80
2019-03-27T09:19:12.449Z,36.20
2019-03-27T09:21:14.681Z,16.43
2019-03-27T09:23:16.880Z,19.23
2019-03-27T09:25:19.094Z,22.47
2019-03-27T09:27:21.317Z,25.17
2019-03-27T09:29:23.526Z,21.53
2019-03-27T09:31:25.782Z,17.00
2019-03-27T09:33:28.070Z,22.50
2019-03-27T09:35:30.283Z,23.93
2019-03-27T09:37:32.514Z,17.23
2019-03-27T09:39:34.805Z,17.97
2019-03-27T09:41:37.369Z,17.90
2019-03-27T09:43:39.597Z,18.50
2019-03-27T09:45:42.106Z,21.63
2019-03-27T09:47:44.321Z,15.97
2019-03-27T09:49:49.816Z,25.80
2019-03-27T09:51:50.683Z,21.27
2019-03-27T09:53:53.351Z,16.30
2019-03-27T09:55:56.013Z,17.03
2019-03-27T09:57:58.247Z,18.20
2019-03-27T10:00:00.482Z,16.53
2019-03-27T10:02:02.715Z,17.53
2019-03-27T10:04:04.918Z,19.13
2019-03-27T10:06:07.133Z,16.37
2019-03-27T10:08:09.371Z,20.47
2019-03-27T10:10:11.591Z,19.80
2019-03-27T10:12:13.821Z,14.87
2019-03-27T10:14:16.030Z,14.90
2019-03-27T10:16:18.337Z,24.07
2019-03-27T10:18:20.624Z,16.10
2019-03-27T10:20:22.842Z,15.70
2019-03-27T10:22:25.076Z,21.53
2019-03-27T10:24:27.290Z,22.97
2019-03-27T10:26:29.519Z,17.07
2019-03-27T10:28:31.997Z,12.77
2019-03-27T10:30:34.309Z,21.17
2019-03-27T10:32:36.533Z,23.27
2019-03-27T10:34:38.749Z,16.47
2019-03-27T10:36:41.526Z,19.70
2019-03-27T10:38:43.745Z,18.10
2019-03-27T10:40:46.055Z,14.77
2019-03-27T10:42:48.287Z,13.80
2019-03-27T10:44:50.506Z,21.33
2019-03-27T10:46:52.741Z,12.87
2019-03-27T10:48:55.221Z,19.67
2019-03-27T10:50:57.442Z,11.87
2019-03-27T10:52:59.658Z,16.97
2019-03-27T10:55:01.888Z,21.80
2019-03-27T10:57:04.094Z,21.57
2019-03-27T10:59:06.313Z,12.67
2019-03-27T11:01:08.567Z,23.90
2019-03-27T11:03:10.786Z,22.20
2019-03-27T11:05:13.006Z,14.17
2019-03-27T11:07:15.236Z,21.77
2019-03-27T11:09:17.449Z,14.13
2019-03-27T11:11:19.661Z,19.97
2019-03-27T11:13:21.892Z,12.57
2019-03-27T11:15:24.126Z,12.40
2019-03-27T11:17:26.355Z,15.17
2019-03-27T11:19:28.614Z,17.90
2019-03-27T11:21:30.883Z,13.60
2019-03-27T11:23:33.110Z,18.57
2019-03-27T11:25:35.321Z,16.53
2019-03-27T11:27:38.086Z,11.67
2019-03-27T11:29:40.296Z,11.53
2019-03-27T11:31:42.506Z,10.37
2019-03-27T11:34:04.133Z,15.53
2019-03-27T11:36:06.342Z,6.97
2019-03-27T11:38:08.561Z,11.30
2019-03-27T11:40:11.127Z,13.47
2019-03-27T11:42:13.586Z,11.00
2019-03-27T11:44:16.071Z,7.63
2019-03-27T11:46:18.645Z,12.57
2019-03-27T11:48:20.874Z,11.20
2019-03-27T11:50:23.105Z,12.43
2019-03-27T11:52:25.313Z,8.80
2019-03-27T11:54:27.774Z,9.40
2019-03-27T11:56:30.278Z,12.93
2019-03-27T11:58:32.492Z,11.10
2019-03-27T12:00:34.710Z,13.80
2019-03-27T12:02:36.930Z,9.50
2019-03-27T12:04:39.162Z,8.37
2019-03-27T12:06:41.386Z,11.50
2019-03-27T12:08:43.617Z,13.67
2019-03-27T12:10:45.875Z,15.63
2019-03-27T12:12:48.436Z,11.83
2019-03-27T12:14:51.000Z,8.87
2019-03-27T12:16:53.317Z,10.57
2019-03-27T12:18:55.551Z,10.00
2019-03-27T12:20:59.670Z,14.10
2019-03-27T12:23:02.301Z,10.87
2019-03-27T12:25:04.875Z,13.47
2019-03-27T12:27:07.096Z,13.53
2019-03-27T12:29:09.323Z,13.87
2019-03-27T12:31:11.546Z,9.53
2019-03-27T12:33:13.766Z,11.13
2019-03-27T12:35:15.974Z,6.90
2019-03-27T12:37:18.198Z,15.87
2019-03-27T12:39:20.422Z,8.53
2019-03-27T12:41:22.634Z,7.83
2019-03-27T12:43:24.866Z,10.83
2019-03-27T12:45:27.081Z,9.03
2019-03-27T12:47:29.293Z,11.50
2019-03-27T12:49:31.509Z,6.77
2019-03-27T12:51:33.721Z,11.00
2019-03-27T12:53:36.030Z,8.20
2019-03-27T12:55:38.270Z,8.80
2019-03-27T12:57:40.483Z,6.20
2019-03-27T12:59:42.720Z,14.77
2019-03-27T13:01:44.922Z,8.13
2019-03-27T13:03:47.154Z,8.33
2019-03-27T13:05:49.369Z,10.93
2019-03-27T13:07:51.591Z,10.60
2019-03-27T13:09:54.111Z,9.10
2019-03-27T13:11:56.336Z,12.43
2019-03-27T13:13:58.551Z,10.07
2019-03-27T13:16:00.766Z,11.53
2019-03-27T13:18:02.981Z,7.80
2019-03-27T13:20:05.270Z,10.03
2019-03-27T13:22:07.488Z,8.57
2019-03-27T13:24:09.983Z,7.20
2019-03-27T13:26:12.195Z,10.50
2019-03-27T13:28:14.405Z,14.13
2019-03-27T13:30:16.777Z,9.27
2019-03-27T13:32:19.269Z,7.63
2019-03-27T13:34:21.503Z,7.30
2019-03-27T13:36:23.809Z,14.07
2019-03-27T13:38:26.025Z,7.53
2019-03-27T13:40:28.249Z,7.17
2019-03-27T13:42:30.469Z,10.30
2019-03-27T13:44:37.263Z,7.93
2019-03-27T13:46:37.158Z,9.93
2019-03-27T13:48:39.381Z,6.60
2019-03-27T13:50:41.614Z,6.23
2019-03-27T13:52:43.820Z,7.07
2019-03-27T13:54:46.057Z,7.57
2019-03-27T13:56:48.265Z,5.60
2019-03-27T13:58:50.485Z,8.20
2019-03-27T14:00:52.702Z,9.87
2019-03-27T14:02:54.918Z,4.50
2019-03-27T14:04:57.450Z,5.20
2019-03-27T14:06:59.668Z,8.30
2019-03-27T14:09:02.189Z,7.87
2019-03-27T14:11:04.409Z,8.40
2019-03-27T14:13:06.721Z,9.00
2019-03-27T14:15:08.982Z,4.83
2019-03-27T14:17:11.270Z,9.50
2019-03-27T14:19:13.493Z,8.70
2019-03-27T14:21:15.711Z,5.27
2019-03-27T14:23:17.931Z,5.37
2019-03-27T14:25:22.067Z,6.60
2019-03-27T14:27:24.698Z,13.33
2019-03-27T14:29:26.927Z,10.00
2019-03-27T14:31:29.421Z,9.53
2019-03-27T14:33:31.731Z,12.20
2019-03-27T14:35:33.958Z,4.57
2019-03-27T14:37:36.173Z,7.20
2019-03-27T14:39:38.397Z,7.87
2019-03-27T14:41:40.605Z,7.87
2019-03-27T14:43:42.812Z,5.60
2019-03-27T14:45:45.039Z,7.77
2019-03-27T14:47:47.254Z,6.07
2019-03-27T14:49:49.479Z,5.77
2019-03-27T14:51:51.685Z,6.47
2019-03-27T14:53:53.915Z,9.60
2019-03-27T14:55:56.139Z,6.10
2019-03-27T14:57:58.351Z,7.10
2019-03-27T15:00:00.736Z,5.10
2019-03-27T15:02:03.402Z,7.40
2019-03-27T15:04:05.621Z,5.80
2019-03-27T15:06:07.853Z,9.37
2019-03-27T15:08:10.069Z,6.17
2019-03-27T15:10:12.351Z,3.40
2019-03-27T15:12:14.566Z,4.30
2019-03-27T15:14:16.784Z,6.90
2019-03-27T15:16:19.005Z,5.37
2019-03-27T15:18:21.485Z,7.70
2019-03-27T15:20:23.713Z,8.70
2019-03-27T15:22:25.928Z,4.60
2019-03-27T15:24:28.411Z,4.50
2019-03-27T15:26:30.638Z,5.47
2019-03-27T15:28:33.093Z,7.50
2019-03-27T15:30:35.313Z,10.00
2019-03-27T15:32:37.529Z,8.20
2019-03-27T15:34:40.029Z,11.13
2019-03-27T15:36:42.251Z,8.13
2019-03-27T15:38:44.461Z,8.00
2019-03-27T15:40:46.690Z,7.17
2019-03-27T15:42:48.959Z,11.30
2019-03-27T15:44:51.230Z,10.03
2019-03-27T15:46:53.442Z,7.33
2019-03-27T15:48:55.649Z,8.70
2019-03-27T15:50:59.035Z,7.40
2019-03-27T15:53:01.386Z,12.20
2019-03-27T15:55:04.469Z,7.27
2019-03-27T15:57:06.687Z,9.27
2019-03-27T15:59:08.902Z,11.27
2019-03-27T16:01:11.129Z,11.33
2019-03-27T16:03:13.347Z,10.17
2019-03-27T16:05:15.577Z,11.80
2019-03-27T16:07:17.791Z,9.30
2019-03-27T16:09:20.302Z,10.57
2019-03-27T16:11:22.529Z,11.13
2019-03-27T16:13:24.749Z,13.07
2019-03-27T16:15:26.966Z,12.50
2019-03-27T16:17:29.187Z,17.93
2019-03-27T16:19:31.405Z,10.50
2019-03-27T16:21:33.979Z,12.60
2019-03-27T16:23:38.054Z,9.97
2019-03-27T16:25:40.267Z,15.70
2019-03-27T16:27:42.493Z,16.67
2019-03-27T16:29:44.709Z,11.30
2019-03-27T16:31:46.926Z,11.60
2019-03-27T16:33:49.137Z,14.57
2019-03-27T16:35:51.422Z,11.83
2019-03-27T16:37:53.642Z,12.67
2019-03-27T16:39:56.167Z,9.60
2019-03-27T16:41:58.493Z,10.23
2019-03-27T16:44:00.970Z,9.67
2019-03-27T16:46:03.225Z,18.57
2019-03-27T16:48:05.534Z,18.60
2019-03-27T16:50:07.814Z,16.00
2019-03-27T16:52:10.042Z,13.50
2019-03-27T16:54:12.271Z,13.07
2019-03-27T16:56:14.498Z,13.20
2019-03-27T16:58:16.725Z,16.23
2019-03-27T17:00:19.045Z,22.90
2019-03-27T17:02:21.273Z,17.13
2019-03-27T17:04:23.493Z,11.23
2019-03-27T17:06:25.711Z,16.63
2019-03-27T17:08:27.930Z,13.37
2019-03-27T17:10:30.152Z,12.67
2019-03-27T17:12:32.374Z,10.18
2019-03-27T17:14:34.591Z,12.80
2019-03-27T17:16:36.819Z,14.70
2019-03-27T17:18:39.021Z,13.97
2019-03-27T17:20:41.259Z,9.70
2019-03-27T17:22:43.489Z,11.03
2019-03-27T17:24:45.707Z,10.77
2019-03-27T17:26:48.260Z,9.00
2019-03-27T17:28:50.469Z,13.70
2019-03-27T17:30:52.685Z,15.20
2019-03-27T17:32:54.920Z,12.43
2019-03-27T17:34:57.130Z,13.10
2019-03-27T17:36:59.359Z,13.67
2019-03-27T17:39:01.571Z,18.17
2019-03-27T17:41:04.080Z,9.03
2019-03-27T17:43:06.309Z,9.40
2019-03-27T17:45:08.529Z,14.23
2019-03-27T17:47:11.009Z,12.30
2019-03-27T17:49:13.242Z,11.63
2019-03-27T17:51:15.546Z,11.40
2019-03-27T17:53:30.734Z,11.80
2019-03-27T17:55:22.258Z,11.87
2019-03-27T17:57:24.474Z,15.20
2019-03-27T17:59:26.997Z,9.63
2019-03-27T18:01:29.218Z,11.93
2019-03-27T18:03:31.445Z,14.30
2019-03-27T18:05:33.661Z,13.23
2019-03-27T18:07:36.239Z,8.50
2019-03-27T18:09:38.449Z,14.97
2019-03-27T18:11:40.670Z,11.70
2019-03-27T18:13:42.906Z,7.50
2019-03-27T18:15:45.142Z,14.47
2019-03-27T18:17:47.641Z,10.77
2019-03-27T18:19:49.862Z,14.37
2019-03-27T18:21:52.065Z,14.13
2019-03-27T18:23:54.296Z,10.63
2019-03-27T18:25:57.085Z,12.67
2019-03-27T18:27:59.313Z,13.10
2019-03-27T18:30:01.530Z,9.03
2019-03-27T18:32:03.745Z,6.63
2019-03-27T18:34:06.309Z,13.00
2019-03-27T18:36:08.805Z,13.00
2019-03-27T18:38:11.045Z,10.87
2019-03-27T18:40:13.266Z,14.10
2019-03-27T18:42:15.485Z,15.30
2019-03-27T18:44:17.725Z,11.13
2019-03-27T18:46:19.955Z,13.87
2019-03-27T18:48:22.174Z,10.20
2019-03-27T18:50:24.398Z,9.67
2019-03-27T18:52:26.915Z,10.60
2019-03-27T18:54:29.162Z,10.60
2019-03-27T18:56:31.378Z,12.53
2019-03-27T18:58:33.648Z,10.33
2019-03-27T19:00:35.930Z,17.30
2019-03-27T19:02:38.661Z,14.07
2019-03-27T19:04:41.229Z,9.63
2019-03-27T19:06:43.451Z,10.63
2019-03-27T19:08:45.678Z,10.23
2019-03-27T19:10:48.234Z,8.40
2019-03-27T19:12:50.466Z,12.30
2019-03-27T19:14:53.189Z,10.73
2019-03-27T19:16:55.751Z,14.90
2019-03-27T19:18:57.986Z,12.10
2019-03-27T19:21:00.196Z,13.60
2019-03-27T19:23:02.690Z,10.70
2019-03-27T19:25:05.049Z,18.77
2019-03-27T19:27:07.538Z,12.70
2019-03-27T19:29:09.874Z,15.80
2019-03-27T19:31:12.366Z,9.50
2019-03-27T19:33:14.591Z,15.70
2019-03-27T19:35:16.810Z,13.40
2019-03-27T19:37:19.027Z,21.30
2019-03-27T19:39:21.349Z,26.33
2019-03-27T19:41:23.665Z,12.90
2019-03-27T19:43:25.994Z,13.30
2019-03-27T19:45:28.305Z,14.27
2019-03-27T19:47:30.521Z,18.10
2019-03-27T19:49:32.746Z,24.20
2019-03-27T19:51:34.956Z,21.30
2019-03-27T19:53:37.185Z,21.53
2019-03-27T19:55:39.417Z,14.67
2019-03-27T19:57:41.649Z,13.80
2019-03-27T19:59:43.870Z,18.77
2019-03-27T20:01:46.093Z,23.87
2019-03-27T20:03:48.571Z,19.50
2019-03-27T20:05:50.782Z,16.40
2019-03-27T20:07:52.993Z,17.43
2019-03-27T20:09:55.229Z,20.03
2019-03-27T20:11:57.455Z,20.13
2019-03-27T20:13:59.692Z,19.10
2019-03-27T20:16:01.905Z,18.03
2019-03-27T20:18:04.252Z,19.53
2019-03-27T20:20:07.840Z,24.07
2019-03-27T20:22:10.058Z,24.93
2019-03-27T20:24:12.287Z,21.97
2019-03-27T20:26:14.498Z,25.60
2019-03-27T20:28:16.705Z,22.03
2019-03-27T20:30:18.990Z,21.33
2019-03-27T20:32:21.202Z,21.53
2019-03-27T20:34:23.430Z,26.10
2019-03-27T20:36:25.651Z,26.23
2019-03-27T20:38:27.875Z,24.77
2019-03-27T20:40:30.403Z,24.57
2019-03-27T20:42:32.931Z,25.27
2019-03-27T20:44:35.163Z,26.30
2019-03-27T20:46:37.629Z,34.43
2019-03-27T20:48:42.563Z,26.10
2019-03-27T20:50:43.961Z,31.47
2019-03-27T20:52:46.178Z,39.23
2019-03-27T20:54:55.062Z,29.97
2019-03-27T20:56:52.531Z,34.77
2019-03-27T20:58:54.761Z,28.93
2019-03-27T21:00:57.257Z,28.43
2019-03-27T21:02:59.751Z,37.53
2019-03-27T21:05:01.974Z,30.87
2019-03-27T21:07:04.197Z,27.23
2019-03-27T21:09:06.426Z,27.70
2019-03-27T21:11:08.634Z,30.57
2019-03-27T21:13:10.846Z,29.57
2019-03-27T21:15:13.074Z,27.70
2019-03-27T21:17:15.290Z,39.80
2019-03-27T21:19:18.327Z,31.63
2019-03-27T21:21:20.552Z,26.90
2019-03-27T21:23:22.998Z,34.90
2019-03-27T21:25:25.228Z,32.47
2019-03-27T21:27:28.294Z,26.83
2019-03-27T21:29:30.773Z,31.87
2019-03-27T21:31:32.993Z,37.13
2019-03-27T21:33:35.205Z,30.43
2019-03-27T21:35:37.435Z,34.53
2019-03-27T21:37:39.645Z,30.93
2019-03-27T21:39:42.210Z,43.57
2019-03-27T21:41:44.430Z,39.70
2019-03-27T21:43:46.657Z,27.63
2019-03-27T21:45:48.922Z,32.30
2019-03-27T21:47:51.129Z,41.03
2019-03-27T21:49:53.358Z,34.73
2019-03-27T21:51:55.583Z,31.90
2019-03-27T21:53:57.821Z,33.30
2019-03-27T21:56:00.038Z,32.40
2019-03-27T21:58:02.267Z,35.20
2019-03-27T22:00:05.243Z,32.60
2019-03-27T22:02:07.553Z,31.87
2019-03-27T22:04:10.070Z,30.00
2019-03-27T22:06:12.525Z,30.53
2019-03-27T22:08:15.013Z,29.67
2019-03-27T22:10:17.239Z,38.00
2019-03-27T22:12:19.457Z,34.40
2019-03-27T22:14:21.686Z,27.77
2019-03-27T22:16:24.281Z,35.13
2019-03-27T22:18:26.511Z,30.50
2019-03-27T22:20:29.062Z,36.13
2019-03-27T22:22:31.270Z,39.90
2019-03-27T22:24:33.502Z,30.77
2019-03-27T22:26:35.717Z,31.13
2019-03-27T22:28:37.924Z,28.10
2019-03-27T22:30:40.154Z,32.33
2019-03-27T22:32:42.365Z,29.50
2019-03-27T22:34:44.609Z,29.30
2019-03-27T22:36:46.906Z,32.67
2019-03-27T22:38:49.123Z,32.50
2019-03-27T22:40:51.349Z,32.83
2019-03-27T22:42:56.728Z,30.77
2019-03-27T22:44:57.694Z,33.00
2019-03-27T22:46:59.913Z,33.20
2019-03-27T22:49:02.125Z,33.70
2019-03-27T22:51:04.362Z,27.33
2019-03-27T22:53:06.576Z,25.83
2019-03-27T22:55:08.826Z,27.37
2019-03-27T22:57:11.285Z,28.00
2019-03-27T22:59:13.516Z,24.93
2019-03-27T23:01:16.233Z,26.80
2019-03-27T23:03:19.045Z,26.03
2019-03-27T23:05:21.569Z,28.60
2019-03-27T23:07:23.786Z,25.47
2019-03-27T23:09:26.015Z,24.63
2019-03-27T23:11:28.241Z,27.60
2019-03-27T23:13:30.453Z,24.73
2019-03-27T23:15:32.678Z,22.97
2019-03-27T23:17:34.893Z,22.27
2019-03-27T23:19:37.126Z,30.07
2019-03-27T23:21:39.339Z,28.10
2019-03-27T23:23:41.557Z,22.57
2019-03-27T23:25:43.854Z,28.50
2019-03-27T23:27:46.062Z,32.43
2019-03-27T23:29:48.577Z,22.40
2019-03-27T23:31:50.788Z,28.47
2019-03-27T23:33:52.990Z,27.80
2019-03-27T23:35:55.221Z,25.50
2019-03-27T23:37:57.433Z,20.33
2019-03-27T23:39:59.957Z,24.40
2019-03-27T23:42:02.189Z,23.83
2019-03-27T23:44:04.398Z,26.27
2019-03-27T23:46:06.608Z,27.03
2019-03-27T23:48:09.126Z,27.70
2019-03-27T23:50:11.359Z,30.50
2019-03-27T23:52:13.574Z,23.83
2019-03-27T23:54:15.796Z,24.37
2019-03-27T23:56:18.022Z,20.80
2019-03-27T23:58:20.238Z,27.03
